Time;durP1;ratioP1;P1;durP2;ratioP2;P2;SDS_P1;SDS_P2;PMS_P1;PMS_P2;Temp;Humidity;BMP_temperature;BMP_pressure;BME280_temperature;BME280_humidity;BME280_pressure;Samples;Min_cycle;Max_cycle;Signal;HPM_P1;HPM_P2
2023/04/24 00:01:43;;;;;;;2.35;1.52;;;13.20;99.90;;;;;;4955067;28;20393;-87
2023/04/24 00:04:10;;;;;;;3.40;1.35;;;13.30;99.90;;;;;;4956990;29;20028;-87
2023/04/24 00:06:36;;;;;;;3.00;1.40;;;13.20;99.90;;;;;;4956331;29;20031;-87
2023/04/24 00:09:03;;;;;;;3.60;1.63;;;13.20;99.90;;;;;;4956444;29;20032;-87
2023/04/24 00:11:29;;;;;;;3.33;1.52;;;13.20;99.90;;;;;;4939596;29;20024;-87
2023/04/24 00:13:56;;;;;;;2.05;1.50;;;13.10;99.90;;;;;;4956137;29;20465;-87
2023/04/24 00:16:22;;;;;;;2.33;1.80;;;13.10;99.90;;;;;;4955662;29;20059;-87
2023/04/24 00:18:48;;;;;;;5.95;1.50;;;13.10;99.90;;;;;;4956083;29;20030;-87
2023/04/24 00:21:15;;;;;;;3.50;1.50;;;13.10;99.90;;;;;;4956266;29;20028;-87
2023/04/24 00:23:41;;;;;;;2.10;1.60;;;13.10;99.90;;;;;;4956253;29;20078;-87
2023/04/24 00:26:07;;;;;;;4.85;1.55;;;13.10;99.90;;;;;;4956172;29;20023;-87
2023/04/24 00:28:32;;;;;;;2.42;1.30;;;13.20;99.90;;;;;;4956307;29;20489;-87
2023/04/24 00:30:58;;;;;;;2.83;1.50;;;13.10;99.90;;;;;;4955600;29;20392;-87
2023/04/24 00:33:24;;;;;;;3.00;1.50;;;13.10;99.90;;;;;;4955938;29;20054;-87
2023/04/24 00:35:49;;;;;;;2.83;1.70;;;13.10;99.90;;;;;;4956191;29;20063;-87
2023/04/24 00:38:15;;;;;;;2.30;1.60;;;13.00;99.90;;;;;;4955772;29;20315;-86
2023/04/24 00:40:40;;;;;;;2.30;1.27;;;13.10;99.90;;;;;;4955697;29;20388;-87
2023/04/24 00:43:06;;;;;;;2.25;1.50;;;13.10;99.90;;;;;;4955804;29;20465;-87
2023/04/24 00:45:32;;;;;;;2.35;1.60;;;13.10;99.90;;;;;;4938940;28;20551;-88
2023/04/24 00:47:58;;;;;;;2.50;1.30;;;13.10;99.90;;;;;;4957911;28;20027;-87
2023/04/24 00:50:24;;;;;;;2.47;1.20;;;13.10;99.90;;;;;;4957469;28;20373;-87
2023/04/24 00:52:50;;;;;;;1.58;1.40;;;13.20;99.90;;;;;;4957437;28;20050;-87
2023/04/24 00:55:16;;;;;;;3.90;1.40;;;13.10;99.90;;;;;;4957301;28;20038;-87
2023/04/24 00:57:43;;;;;;;3.35;1.30;;;13.20;99.90;;;;;;4975086;28;20038;-87
2023/04/24 01:00:12;;;;;;;3.30;1.42;;;13.20;99.90;;;;;;4973654;28;20113;-87
2023/04/24 01:02:43;;;;;;;3.45;1.42;;;13.20;99.90;;;;;;4974422;28;20105;-87
2023/04/24 01:05:09;;;;;;;2.95;1.50;;;13.20;99.90;;;;;;4974440;28;20035;-87
2023/04/24 01:07:36;;;;;;;3.88;1.52;;;13.20;99.90;;;;;;4974684;28;20130;-87
2023/04/24 01:10:02;;;;;;;1.67;1.20;;;13.10;99.90;;;;;;4974757;28;20050;-87
2023/04/24 01:12:27;;;;;;;1.85;1.23;;;13.10;99.90;;;;;;4971968;28;20065;-86
2023/04/24 01:14:54;;;;;;;5.20;1.35;;;13.00;99.90;;;;;;4973778;28;20443;-87
2023/04/24 01:17:20;;;;;;;5.05;1.30;;;13.00;99.90;;;;;;4974253;28;20035;-87
2023/04/24 01:19:46;;;;;;;1.95;1.30;;;12.90;99.90;;;;;;4974492;28;20073;-87
2023/04/24 01:22:16;;;;;;;2.97;1.25;;;13.00;99.90;;;;;;4974403;28;20460;-86
2023/04/24 01:24:43;;;;;;;2.08;1.55;;;13.00;99.90;;;;;;4974278;28;20027;-87
2023/04/24 01:27:09;;;;;;;2.75;1.60;;;13.00;99.90;;;;;;4973124;28;20054;-87
2023/04/24 01:29:35;;;;;;;2.58;1.40;;;12.90;99.90;;;;;;4973722;28;20076;-87
2023/04/24 01:32:03;;;;;;;3.65;1.50;;;13.00;99.90;;;;;;4974044;28;20023;-85
2023/04/24 01:34:28;;;;;;;3.33;1.65;;;13.00;99.90;;;;;;4974011;28;20046;-87
2023/04/24 01:36:55;;;;;;;3.70;1.38;;;13.00;99.90;;;;;;4974204;28;20141;-87
2023/04/24 01:39:23;;;;;;;1.52;1.42;;;13.00;99.90;;;;;;4973879;28;20102;-87
2023/04/24 01:41:50;;;;;;;3.20;1.58;;;13.00;99.90;;;;;;4973983;28;20027;-87
2023/04/24 01:44:16;;;;;;;4.10;1.63;;;13.10;99.90;;;;;;4973554;28;20030;-87
2023/04/24 01:46:42;;;;;;;2.35;1.48;;;13.10;99.90;;;;;;4973527;28;20073;-87
2023/04/24 01:49:07;;;;;;;2.83;1.48;;;13.10;99.90;;;;;;4974180;28;20473;-87
2023/04/24 01:51:33;;;;;;;2.67;1.38;;;13.10;99.90;;;;;;4973720;28;20019;-87
2023/04/24 01:53:59;;;;;;;1.48;1.30;;;13.10;99.90;;;;;;4973493;28;20034;-87
2023/04/24 01:56:25;;;;;;;2.20;1.60;;;13.10;99.90;;;;;;4972857;28;20031;-88
2023/04/24 01:58:53;;;;;;;1.50;1.38;;;13.10;99.90;;;;;;4971638;28;20043;-87
2023/04/24 02:01:24;;;;;;;4.07;1.20;;;13.00;99.90;;;;;;4972390;28;20034;-87
2023/04/24 02:03:50;;;;;;;2.15;1.45;;;13.10;99.90;;;;;;4973530;28;20050;-87
2023/04/24 02:06:16;;;;;;;2.70;1.40;;;13.10;99.90;;;;;;4973680;28;20058;-87
2023/04/24 02:08:41;;;;;;;1.42;1.25;;;13.20;99.90;;;;;;4973818;28;20435;-87
2023/04/24 02:11:09;;;;;;;2.35;1.40;;;13.20;99.90;;;;;;4973443;28;20027;-87
2023/04/24 02:13:35;;;;;;;2.65;1.20;;;13.20;99.90;;;;;;4973032;28;20027;-87
2023/04/24 02:16:01;;;;;;;3.63;1.60;;;13.20;99.90;;;;;;4972186;28;20180;-87
2023/04/24 02:18:27;;;;;;;2.85;1.30;;;13.20;99.90;;;;;;4972398;28;20027;-87
2023/04/24 02:20:52;;;;;;;4.05;1.20;;;13.10;99.90;;;;;;4972159;28;20151;-87
2023/04/24 02:23:18;;;;;;;1.17;1.08;;;13.20;99.90;;;;;;4971996;28;20034;-87
2023/04/24 02:25:44;;;;;;;3.05;1.15;;;13.20;99.90;;;;;;4973134;28;20027;-87
2023/04/24 02:28:09;;;;;;;2.13;1.33;;;13.10;99.90;;;;;;4972915;28;20027;-87
2023/04/24 02:30:35;;;;;;;1.33;1.15;;;13.10;99.90;;;;;;4973712;28;20031;-87
2023/04/24 02:33:00;;;;;;;2.17;1.05;;;13.00;99.90;;;;;;4972221;28;20428;-87
2023/04/24 02:35:26;;;;;;;1.77;1.25;;;13.00;99.90;;;;;;4973231;28;20038;-87
2023/04/24 02:37:52;;;;;;;3.25;1.30;;;13.00;99.90;;;;;;4971923;28;20023;-87
2023/04/24 02:40:17;;;;;;;3.13;1.25;;;13.00;99.90;;;;;;4973491;28;20038;-88
2023/04/24 02:42:43;;;;;;;2.25;1.10;;;12.90;99.90;;;;;;4972684;28;20019;-86
2023/04/24 02:45:09;;;;;;;2.58;1.27;;;12.90;99.90;;;;;;4973212;28;20030;-87
2023/04/24 02:47:35;;;;;;;2.78;1.15;;;12.90;99.90;;;;;;4973144;28;20102;-87
2023/04/24 02:50:01;;;;;;;3.38;1.20;;;12.80;99.90;;;;;;4972941;28;20118;-86
2023/04/24 02:52:27;;;;;;;2.67;1.17;;;12.90;99.90;;;;;;4972893;28;20034;-87
2023/04/24 02:54:53;;;;;;;2.40;1.08;;;13.00;99.90;;;;;;4972934;28;20041;-86
2023/04/24 02:57:19;;;;;;;2.53;1.13;;;13.00;99.90;;;;;;4972689;28;20043;-87
2023/04/24 02:59:46;;;;;;;3.22;1.05;;;12.90;99.90;;;;;;4972497;28;20488;-86
2023/04/24 03:02:11;;;;;;;6.90;1.50;;;13.00;99.90;;;;;;4973037;28;20037;-86
2023/04/24 03:04:37;;;;;;;3.75;1.20;;;13.00;99.90;;;;;;4972751;28;20030;-86
2023/04/24 03:07:04;;;;;;;2.70;1.27;;;12.90;99.90;;;;;;4973081;28;20027;-87
2023/04/24 03:09:29;;;;;;;3.45;1.10;;;13.00;99.90;;;;;;4971250;28;20083;-87
2023/04/24 03:11:56;;;;;;;1.38;1.00;;;13.00;99.90;;;;;;4972487;28;20480;-87
2023/04/24 03:14:22;;;;;;;1.88;1.13;;;12.80;99.90;;;;;;4972827;28;20031;-86
2023/04/24 03:16:47;;;;;;;2.78;1.38;;;12.80;99.90;;;;;;4972827;28;20053;-86
2023/04/24 03:19:13;;;;;;;3.35;1.00;;;12.60;99.90;;;;;;4973141;28;20026;-87
2023/04/24 03:21:40;;;;;;;1.95;1.20;;;12.70;99.90;;;;;;4972760;28;20046;-88
2023/04/24 03:24:08;;;;;;;3.60;1.13;;;12.80;99.90;;;;;;4972769;28;20019;-87
2023/04/24 03:26:33;;;;;;;2.95;1.17;;;12.80;99.90;;;;;;4972293;28;20078;-86
2023/04/24 03:28:59;;;;;;;4.80;1.42;;;12.80;99.90;;;;;;4971369;28;20433;-87
2023/04/24 03:31:25;;;;;;;2.88;1.30;;;12.80;99.90;;;;;;4972933;28;20109;-87
2023/04/24 03:33:50;;;;;;;2.90;1.38;;;12.90;99.90;;;;;;4972902;28;20106;-87
2023/04/24 03:36:17;;;;;;;4.38;1.40;;;12.90;99.90;;;;;;4973981;28;20410;-87
2023/04/24 03:38:43;;;;;;;2.33;1.38;;;12.90;99.90;;;;;;4975820;28;20023;-85
2023/04/24 03:41:08;;;;;;;2.53;1.23;;;12.80;99.90;;;;;;4976357;28;20118;-87
2023/04/24 03:43:34;;;;;;;3.72;1.30;;;12.80;99.90;;;;;;4976399;28;20101;-87
2023/04/24 03:46:00;;;;;;;2.30;1.30;;;12.80;99.90;;;;;;4976009;28;20057;-87
2023/04/24 03:48:26;;;;;;;5.65;1.50;;;12.70;99.90;;;;;;4974811;28;20026;-87
2023/04/24 03:50:51;;;;;;;3.05;1.38;;;12.70;99.90;;;;;;4976523;28;20395;-87
2023/04/24 03:53:17;;;;;;;5.18;1.65;;;12.60;99.90;;;;;;4974648;28;20018;-87
2023/04/24 03:55:43;;;;;;;3.15;1.20;;;12.60;99.90;;;;;;4975825;28;20046;-87
2023/04/24 03:58:08;;;;;;;4.30;1.42;;;12.60;99.90;;;;;;4975912;28;20487;-87
2023/04/24 04:00:34;;;;;;;2.83;1.10;;;12.60;99.90;;;;;;4976366;28;20050;-86
2023/04/24 04:03:00;;;;;;;3.95;1.38;;;12.60;99.90;;;;;;4975885;28;20101;-87
2023/04/24 04:05:25;;;;;;;4.10;1.60;;;12.60;99.90;;;;;;4975994;28;20035;-87
2023/04/24 04:07:51;;;;;;;2.80;1.83;;;12.60;99.90;;;;;;4974329;28;20026;-87
2023/04/24 04:10:17;;;;;;;3.45;1.85;;;12.60;99.90;;;;;;4976039;28;20029;-87
2023/04/24 04:12:42;;;;;;;3.47;2.00;;;12.60;99.90;;;;;;4975829;28;20030;-87
2023/04/24 04:15:08;;;;;;;3.25;1.33;;;12.50;99.90;;;;;;4975687;28;20511;-87
2023/04/24 04:17:34;;;;;;;5.90;1.50;;;12.40;99.90;;;;;;4975680;28;20484;-87
2023/04/24 04:20:00;;;;;;;6.50;2.05;;;12.40;99.90;;;;;;4975575;28;20086;-87
2023/04/24 04:22:26;;;;;;;3.50;2.00;;;12.50;99.90;;;;;;4975881;28;20111;-87
2023/04/24 04:24:52;;;;;;;2.70;1.60;;;12.50;99.90;;;;;;4974177;28;20054;-87
2023/04/24 04:27:18;;;;;;;2.60;1.40;;;12.50;99.90;;;;;;4974087;28;20054;-87
2023/04/24 04:29:44;;;;;;;3.55;1.60;;;12.50;99.90;;;;;;4975277;28;20038;-86
2023/04/24 04:32:10;;;;;;;2.78;1.30;;;12.50;99.90;;;;;;4975587;28;20460;-87
2023/04/24 04:34:37;;;;;;;3.88;1.55;;;12.40;99.90;;;;;;4975605;28;20042;-87
2023/04/24 04:37:03;;;;;;;4.07;1.40;;;12.40;99.90;;;;;;4975034;28;20017;-87
2023/04/24 04:39:30;;;;;;;5.82;1.50;;;12.50;99.90;;;;;;4975271;28;20023;-87
2023/04/24 04:41:56;;;;;;;2.58;1.60;;;12.40;99.90;;;;;;4975185;28;20473;-87
2023/04/24 04:44:21;;;;;;;7.13;1.95;;;12.30;99.90;;;;;;4973956;28;20066;-87
2023/04/24 04:46:47;;;;;;;3.17;1.60;;;12.20;99.90;;;;;;4974865;28;20061;-88
2023/04/24 04:49:16;;;;;;;3.70;1.80;;;12.20;99.90;;;;;;4974234;28;20361;-87
2023/04/24 04:51:42;;;;;;;3.55;1.98;;;12.20;99.90;;;;;;4974389;28;20404;-87
2023/04/24 04:54:07;;;;;;;4.60;2.15;;;12.20;99.90;;;;;;4974811;28;20027;-87
2023/04/24 04:56:33;;;;;;;2.75;1.98;;;12.20;99.90;;;;;;4974832;28;20126;-87
2023/04/24 04:58:59;;;;;;;3.72;1.80;;;12.10;99.90;;;;;;4972894;28;20043;-87
2023/04/24 05:01:27;;;;;;;3.90;1.88;;;12.20;99.90;;;;;;4974741;28;20035;-88
2023/04/24 05:03:53;;;;;;;3.28;1.80;;;12.30;99.90;;;;;;4973911;28;20042;-87
2023/04/24 05:06:18;;;;;;;3.22;1.80;;;12.30;99.90;;;;;;4974802;28;20404;-87
2023/04/24 05:08:44;;;;;;;3.42;2.13;;;12.40;99.90;;;;;;4974503;28;20399;-87
2023/04/24 05:11:10;;;;;;;4.22;2.17;;;12.20;99.90;;;;;;4975032;28;20035;-87
2023/04/24 05:13:35;;;;;;;3.38;1.70;;;12.40;99.90;;;;;;4973232;28;20027;-87
2023/04/24 05:16:01;;;;;;;3.17;1.73;;;12.40;99.90;;;;;;4974024;28;20038;-87
2023/04/24 05:18:27;;;;;;;5.13;2.10;;;12.40;99.90;;;;;;4974270;28;20030;-86
2023/04/24 05:20:52;;;;;;;3.60;2.00;;;12.20;99.90;;;;;;4974135;28;20030;-87
2023/04/24 05:23:18;;;;;;;4.07;1.98;;;12.30;99.90;;;;;;4973376;28;20035;-89
2023/04/24 05:25:43;;;;;;;6.05;2.33;;;12.20;99.90;;;;;;4974427;28;20027;-88
2023/04/24 05:28:09;;;;;;;4.45;2.58;;;12.30;99.90;;;;;;4974201;28;20388;-88
2023/04/24 05:30:35;;;;;;;4.63;2.25;;;12.50;99.90;;;;;;4974417;28;20511;-88
2023/04/24 05:33:01;;;;;;;5.05;2.33;;;12.50;99.90;;;;;;4974589;28;20026;-88
2023/04/24 05:35:26;;;;;;;5.95;2.90;;;12.50;99.90;;;;;;4973835;28;20030;-88
2023/04/24 05:37:52;;;;;;;6.38;2.50;;;12.60;99.90;;;;;;4974238;28;20472;-88
2023/04/24 05:40:18;;;;;;;5.57;2.97;;;12.60;99.90;;;;;;4974238;28;20492;-88
2023/04/24 05:42:43;;;;;;;5.93;2.60;;;12.50;99.90;;;;;;4974167;28;20071;-88
2023/04/24 05:45:14;;;;;;;4.05;2.60;;;12.40;99.90;;;;;;4974038;28;20117;-88
2023/04/24 05:47:40;;;;;;;6.75;3.03;;;12.40;99.90;;;;;;4973851;28;20023;-88
2023/04/24 05:50:06;;;;;;;5.53;3.38;;;12.40;99.90;;;;;;4972701;28;20037;-88
2023/04/24 05:52:31;;;;;;;7.90;3.03;;;12.40;99.90;;;;;;4973913;28;20073;-88
2023/04/24 05:54:57;;;;;;;5.00;3.22;;;12.50;99.90;;;;;;4973694;28;20035;-88
2023/04/24 05:57:23;;;;;;;7.90;3.42;;;12.40;99.90;;;;;;4972603;28;20027;-88
2023/04/24 05:59:48;;;;;;;4.25;3.33;;;12.50;99.90;;;;;;4972864;28;20076;-89
2023/04/24 06:02:14;;;;;;;4.68;3.40;;;12.60;99.90;;;;;;4973698;28;20027;-88
2023/04/24 06:04:39;;;;;;;7.72;4.65;;;12.70;99.90;;;;;;4973480;28;20431;-88
2023/04/24 06:07:06;;;;;;;6.75;3.80;;;12.60;99.90;;;;;;4973505;28;20499;-88
2023/04/24 06:09:31;;;;;;;7.75;4.20;;;12.60;99.90;;;;;;4968916;28;20031;-88
2023/04/24 06:11:58;;;;;;;5.93;4.20;;;12.60;99.90;;;;;;4954555;29;20042;-89
2023/04/24 06:14:23;;;;;;;5.85;3.55;;;12.60;99.90;;;;;;4965698;28;20039;-92
2023/04/24 06:16:49;;;;;;;6.45;3.58;;;12.90;99.90;;;;;;4967874;28;20037;-93
2023/04/24 06:19:15;;;;;;;5.10;3.08;;;13.00;99.90;;;;;;4973432;28;20391;-90
2023/04/24 06:21:40;;;;;;;4.50;3.10;;;13.00;99.90;;;;;;4973130;28;20064;-90
2023/04/24 06:24:06;;;;;;;5.97;3.40;;;13.10;99.90;;;;;;4973981;28;20031;-91
2023/04/24 06:26:32;;;;;;;4.85;3.00;;;12.90;99.90;;;;;;4973261;28;20544;-90
2023/04/24 06:28:59;;;;;;;8.35;3.50;;;13.10;99.90;;;;;;4973942;28;20114;-90
2023/04/24 06:31:24;;;;;;;5.40;3.30;;;13.10;99.90;;;;;;4973603;28;20054;-90
2023/04/24 06:33:50;;;;;;;4.35;3.33;;;13.00;99.90;;;;;;4973578;28;20484;-90
2023/04/24 06:36:16;;;;;;;5.72;3.65;;;13.20;99.90;;;;;;4982497;28;20049;-91
2023/04/24 06:38:42;;;;;;;6.72;3.40;;;13.20;99.90;;;;;;4972123;28;20030;-89
2023/04/24 06:41:07;;;;;;;5.00;3.25;;;13.20;99.90;;;;;;4970632;28;20023;-90
2023/04/24 06:43:33;;;;;;;3.63;2.50;;;13.20;99.90;;;;;;4972090;28;20054;-91
2023/04/24 06:46:00;;;;;;;3.35;2.20;;;13.20;99.90;;;;;;4970563;28;20029;-89
2023/04/24 06:48:29;;;;;;;3.83;2.10;;;13.30;99.90;;;;;;4986667;28;20031;-96
2023/04/24 06:50:55;;;;;;;6.40;2.03;;;13.20;99.90;;;;;;4973625;28;20018;-91
2023/04/24 06:53:20;;;;;;;4.13;2.10;;;13.50;99.90;;;;;;4976141;28;20117;-92
2023/04/24 06:55:46;;;;;;;3.53;2.05;;;13.40;99.90;;;;;;4973321;28;20038;-88
2023/04/24 06:58:12;;;;;;;3.58;1.80;;;13.40;99.90;;;;;;4974019;28;20035;-85
2023/04/24 07:00:38;;;;;;;3.72;2.10;;;13.20;99.90;;;;;;4973065;28;20113;-92
2023/04/24 07:03:07;;;;;;;2.78;1.85;;;13.10;99.90;;;;;;4965991;28;20438;-92
2023/04/24 07:05:36;;;;;;;3.85;2.28;;;13.30;99.90;;;;;;4975259;28;20031;-94
2023/04/24 07:08:03;;;;;;;4.65;1.90;;;13.30;99.90;;;;;;4974904;28;20031;-91
2023/04/24 07:10:29;;;;;;;5.18;1.98;;;13.30;99.90;;;;;;4956670;28;20078;-94
2023/04/24 07:12:56;;;;;;;4.35;2.13;;;13.20;99.90;;;;;;4971285;28;20031;-90
2023/04/24 07:15:23;;;;;;;3.58;2.10;;;13.30;99.90;;;;;;4977260;28;20049;-89
2023/04/24 07:17:48;;;;;;;3.55;2.00;;;13.20;99.90;;;;;;4970970;28;20102;-90
2023/04/24 07:20:14;;;;;;;3.13;1.83;;;13.30;99.90;;;;;;4958272;29;20055;-90
2023/04/24 07:22:40;;;;;;;5.55;2.42;;;13.30;99.90;;;;;;4967927;28;20031;-91
2023/04/24 07:25:06;;;;;;;3.65;2.20;;;13.40;99.90;;;;;;4977352;28;20453;-91
2023/04/24 07:27:32;;;;;;;5.95;2.22;;;13.50;99.90;;;;;;4977238;28;20054;-91
2023/04/24 07:29:58;;;;;;;2.88;1.83;;;13.70;99.90;;;;;;4976659;28;20488;-92
2023/04/24 07:32:23;;;;;;;3.78;1.70;;;13.60;99.90;;;;;;4976056;28;20031;-93
2023/04/24 07:34:49;;;;;;;3.00;2.22;;;13.60;99.90;;;;;;4976093;28;20047;-91
2023/04/24 07:37:15;;;;;;;5.80;1.67;;;13.90;99.90;;;;;;4977770;28;20496;-91
2023/04/24 07:39:41;;;;;;;4.57;2.00;;;13.90;99.90;;;;;;4976948;28;20093;-89
2023/04/24 07:42:06;;;;;;;3.47;2.20;;;13.80;99.90;;;;;;4972472;28;20058;-91
2023/04/24 07:44:32;;;;;;;5.35;2.25;;;13.80;99.90;;;;;;4957683;29;20484;-90
2023/04/24 07:46:58;;;;;;;2.90;2.10;;;14.00;99.90;;;;;;4984983;28;20089;-91
2023/04/24 07:49:23;;;;;;;4.78;2.20;;;14.20;99.90;;;;;;4996336;28;20475;-90
2023/04/24 07:51:50;;;;;;;5.30;2.28;;;14.30;99.90;;;;;;4965744;28;20039;-91
2023/04/24 07:54:15;;;;;;;4.57;1.95;;;14.30;99.90;;;;;;4956980;28;20031;-89
2023/04/24 07:56:42;;;;;;;4.80;2.33;;;14.50;99.90;;;;;;4957539;28;20027;-89
2023/04/24 07:59:09;;;;;;;5.20;2.10;;;14.40;99.90;;;;;;4972197;28;20049;-89
2023/04/24 08:01:35;;;;;;;4.38;2.58;;;14.40;99.90;;;;;;4961922;28;20028;-89
2023/04/24 08:04:01;;;;;;;1.88;1.67;;;14.60;99.90;;;;;;4958838;28;20039;-89
2023/04/24 08:06:31;;;;;;;5.55;2.10;;;14.90;99.90;;;;;;4975760;28;20051;-89
2023/04/24 08:08:57;;;;;;;3.92;2.17;;;15.00;99.90;;;;;;4959964;28;20050;-89
2023/04/24 08:11:23;;;;;;;2.95;2.00;;;15.00;99.90;;;;;;4956733;29;20019;-89
2023/04/24 08:13:49;;;;;;;2.47;2.20;;;14.80;99.90;;;;;;4965227;28;20121;-90
2023/04/24 08:16:15;;;;;;;2.83;1.85;;;14.50;99.90;;;;;;4975424;28;20038;-89
2023/04/24 08:18:40;;;;;;;3.33;1.92;;;14.40;99.90;;;;;;4962429;28;20705;-89
2023/04/24 08:21:06;;;;;;;4.28;2.50;;;14.50;99.90;;;;;;4958150;28;20054;-89
2023/04/24 08:23:32;;;;;;;3.92;1.98;;;14.50;99.90;;;;;;4956331;29;20102;-89
2023/04/24 08:25:57;;;;;;;3.53;2.08;;;14.80;99.90;;;;;;4960997;28;20038;-89
2023/04/24 08:28:23;;;;;;;3.15;2.00;;;15.00;99.90;;;;;;4975388;28;20034;-89
2023/04/24 08:30:54;;;;;;;3.47;1.80;;;15.00;99.90;;;;;;4966176;28;20141;-86
2023/04/24 08:33:23;;;;;;;3.33;1.92;;;15.10;99.90;;;;;;4973921;28;20038;-88
2023/04/24 08:35:49;;;;;;;5.40;2.28;;;15.50;99.90;;;;;;4975628;28;20492;-86
2023/04/24 08:38:15;;;;;;;4.55;2.50;;;15.60;99.90;;;;;;4969923;28;20023;-91
2023/04/24 08:40:41;;;;;;;3.72;1.92;;;15.40;99.90;;;;;;4955752;29;20045;-92
2023/04/24 08:43:07;;;;;;;3.60;1.88;;;15.30;99.90;;;;;;4963485;28;20022;-88
2023/04/24 08:45:33;;;;;;;2.60;1.98;;;15.30;99.90;;;;;;4990905;28;20480;-88
2023/04/24 08:47:59;;;;;;;3.75;2.10;;;15.40;99.90;;;;;;4995020;28;20026;-88
2023/04/24 08:50:26;;;;;;;2.25;1.90;;;15.40;99.90;;;;;;4993746;28;20031;-90
2023/04/24 08:52:53;;;;;;;3.67;1.85;;;15.30;99.90;;;;;;4993962;28;20037;-91
2023/04/24 08:55:20;;;;;;;2.83;1.90;;;15.60;99.90;;;;;;4985130;28;20042;-91
2023/04/24 08:57:51;;;;;;;4.10;2.40;;;15.60;99.90;;;;;;4969917;28;20163;-87
2023/04/24 09:00:17;;;;;;;3.90;2.10;;;15.80;99.90;;;;;;4971760;28;20498;-91
2023/04/24 09:02:45;;;;;;;5.40;2.20;;;15.90;99.90;;;;;;4969715;28;20084;-87
2023/04/24 09:05:11;;;;;;;3.22;1.83;;;15.90;99.90;;;;;;4964873;28;20035;-92
2023/04/24 09:07:39;;;;;;;2.47;2.20;;;15.90;99.90;;;;;;4957385;29;20023;-92
2023/04/24 09:10:06;;;;;;;2.15;1.88;;;15.90;99.90;;;;;;4974640;28;20042;-87
2023/04/24 09:12:34;;;;;;;1.88;1.67;;;16.00;99.90;;;;;;4974514;28;20130;-87
2023/04/24 09:15:03;;;;;;;3.40;2.00;;;16.20;99.90;;;;;;4974633;28;20050;-88
2023/04/24 09:17:30;;;;;;;2.47;2.22;;;16.10;99.90;;;;;;4975160;28;20019;-88
2023/04/24 09:19:55;;;;;;;2.78;2.08;;;16.40;99.90;;;;;;4975200;28;20436;-89
2023/04/24 09:22:21;;;;;;;4.97;2.25;;;16.30;99.90;;;;;;4974848;28;20107;-88
2023/04/24 09:24:48;;;;;;;3.67;2.08;;;16.30;99.90;;;;;;4974920;28;20484;-89
2023/04/24 09:27:16;;;;;;;3.58;2.20;;;16.50;99.90;;;;;;4973885;28;20027;-88
2023/04/24 09:30:03;;;;;;;2.95;2.30;;;16.40;99.90;;;;;;4970982;28;20039;-91
2023/04/24 09:32:29;;;;;;;4.68;2.33;;;16.40;99.90;;;;;;4959990;28;20031;-91
2023/04/24 09:35:10;;;;;;;3.83;2.30;;;16.60;99.90;;;;;;4963073;28;20035;-91
2023/04/24 09:37:37;;;;;;;2.55;1.85;;;16.50;99.90;;;;;;4974401;28;20023;-88
2023/04/24 09:40:14;;;;;;;3.67;1.95;;;16.50;99.90;;;;;;4972966;28;20038;-92
2023/04/24 09:42:44;;;;;;;3.45;1.80;;;16.70;99.90;;;;;;4972453;28;20101;-90
2023/04/24 09:45:11;;;;;;;2.78;1.90;;;16.60;99.90;;;;;;4965582;28;20511;-89
2023/04/24 09:47:40;;;;;;;3.08;1.90;;;17.20;99.90;;;;;;4963250;28;20050;-89
2023/04/24 09:50:14;;;;;;;2.72;1.90;;;17.40;99.90;;;;;;4970803;28;20058;-90
2023/04/24 09:52:44;;;;;;;3.30;2.00;;;17.40;99.90;;;;;;4973234;28;20116;-90
2023/04/24 09:55:19;;;;;;;4.40;1.80;;;17.30;99.90;;;;;;4969861;28;20094;-88
2023/04/24 09:57:56;;;;;;;3.10;2.08;;;17.20;99.90;;;;;;4963482;28;20031;-90
2023/04/24 10:00:28;;;;;;;2.80;1.80;;;17.10;99.90;;;;;;4964505;28;20106;-90
2023/04/24 10:02:58;;;;;;;8.13;5.97;;;17.10;99.90;;;;;;4954646;29;20034;-90
2023/04/24 10:05:34;;;;;;;3.97;1.80;;;17.40;99.90;;;;;;4964790;28;20074;-90
2023/04/24 10:08:08;;;;;;;3.65;1.70;;;17.40;99.90;;;;;;4977618;28;20051;-96
2023/04/24 10:10:38;;;;;;;3.15;2.00;;;17.70;99.90;;;;;;4981992;28;20085;-95
2023/04/24 10:13:06;;;;;;;2.08;1.83;;;17.70;99.90;;;;;;4979000;28;20038;-95
2023/04/24 10:15:32;;;;;;;2.33;1.63;;;17.70;99.90;;;;;;4979089;28;20035;-94
2023/04/24 10:18:00;;;;;;;2.88;1.75;;;17.90;99.90;;;;;;4978048;28;20436;-96
2023/04/24 10:20:30;;;;;;;2.80;1.73;;;17.40;99.90;;;;;;4977938;28;20041;-94
2023/04/24 10:22:56;;;;;;;3.30;1.50;;;17.90;99.90;;;;;;4977192;28;20026;-92
2023/04/24 10:25:25;;;;;;;3.72;1.60;;;17.70;99.90;;;;;;4965997;28;20090;-94
2023/04/24 10:27:52;;;;;;;4.68;1.70;;;17.90;99.90;;;;;;4973147;28;20038;-93
2023/04/24 10:30:19;;;;;;;1.73;1.60;;;18.00;99.90;;;;;;4969726;28;20031;-93
2023/04/24 10:32:45;;;;;;;4.07;1.88;;;18.30;99.90;;;;;;4956814;29;20035;-93
2023/04/24 10:35:15;;;;;;;3.80;1.50;;;18.10;99.90;;;;;;4972439;28;20066;-94
2023/04/24 10:40:33;;;;;;;3.55;1.73;;;18.40;99.90;;;;;;4993371;23;20063;-96
2023/04/24 10:43:00;;;;;;;3.17;1.90;;;18.90;99.90;;;;;;4979337;28;20031;-94
2023/04/24 10:45:29;;;;;;;2.40;1.90;;;19.10;99.90;;;;;;4992605;28;20035;-93
2023/04/24 10:48:01;;;;;;;4.30;2.15;;;18.80;99.90;;;;;;4985563;28;20035;-90
2023/04/24 10:50:29;;;;;;;3.78;1.77;;;18.60;99.90;;;;;;4980711;28;20041;-88
2023/04/24 10:53:06;;;;;;;3.33;1.90;;;18.80;99.90;;;;;;4977307;28;20491;-88
2023/04/24 10:55:52;;;;;;;4.80;2.28;;;19.00;99.90;;;;;;4976112;28;20042;-91
2023/04/24 10:58:46;;;;;;;3.28;2.00;;;18.90;99.90;;;;;;4975952;28;20031;-90
2023/04/24 11:01:52;;;;;;;5.82;2.13;;;18.60;99.90;;;;;;4977467;28;20404;-90
2023/04/24 11:04:30;;;;;;;4.10;1.80;;;19.20;99.90;;;;;;4901849;29;20032;-89
2023/04/24 11:06:56;;;;;;;3.22;1.80;;;22.70;99.90;;;;;;4919287;29;20032;-89
2023/04/24 11:09:22;;;;;;;3.67;1.65;;;24.00;99.90;;;;;;4920766;29;20091;-89
2023/04/24 11:11:50;;;;;;;2.53;2.10;;;24.60;99.90;;;;;;4917662;29;20537;-89
2023/04/24 11:14:16;;;;;;;2.13;1.60;;;24.90;99.90;;;;;;4917040;29;20051;-91
2023/04/24 11:16:44;;;;;;;4.63;1.83;;;25.00;99.90;;;;;;4901910;29;20036;-89
2023/04/24 11:19:18;;;;;;;2.22;1.83;;;25.70;99.90;;;;;;4917048;29;20032;-90
2023/04/24 11:21:46;;;;;;;2.65;1.88;;;25.50;99.90;;;;;;4899814;29;20036;-94
2023/04/24 11:24:31;;;;;;;4.68;1.65;;;25.70;99.90;;;;;;4897475;29;20036;-89
2023/04/24 11:27:15;;;;;;;2.10;1.77;;;27.50;99.90;;;;;;4917144;29;20032;-89
2023/04/24 11:29:42;;;;;;;2.55;1.58;;;28.10;99.90;;;;;;4917221;29;20047;-89
2023/04/24 11:32:19;;;;;;;4.95;1.80;;;27.20;99.90;;;;;;4917004;29;20090;-90
2023/04/24 11:34:47;;;;;;;2.70;1.70;;;26.40;99.90;;;;;;4916839;29;20079;-89
2023/04/24 11:37:13;;;;;;;2.45;1.60;;;25.70;99.90;;;;;;4916817;29;20418;-88
2023/04/24 11:39:40;;;;;;;3.53;1.77;;;25.70;99.90;;;;;;4944673;28;20101;-89
2023/04/24 11:42:07;;;;;;;2.80;1.55;;;27.30;99.90;;;;;;4976704;28;20022;-90
2023/04/24 11:44:34;;;;;;;2.88;1.48;;;28.40;99.90;;;;;;4976569;28;20027;-90
2023/04/24 11:47:00;;;;;;;3.67;1.55;;;27.20;99.90;;;;;;4989259;28;20092;-90
2023/04/24 11:49:25;;;;;;;2.15;1.60;;;27.90;99.90;;;;;;4996245;28;20467;-89
2023/04/24 11:51:55;;;;;;;2.55;1.80;;;26.00;99.90;;;;;;4995404;28;20034;-89
2023/04/24 11:54:21;;;;;;;2.72;1.60;;;26.70;99.90;;;;;;4995712;28;20034;-90
2023/04/24 11:56:47;;;;;;;1.73;1.58;;;28.40;99.90;;;;;;4995204;28;20037;-90
2023/04/24 11:59:13;;;;;;;4.13;1.50;;;28.90;99.90;;;;;;4995951;28;20085;-90
2023/04/24 12:01:46;;;;;;;2.80;1.35;;;27.50;99.90;;;;;;4978171;28;20033;-89
2023/04/24 12:04:12;;;;;;;2.10;1.40;;;26.40;99.90;;;;;;4995638;28;20033;-89
2023/04/24 12:06:38;;;;;;;2.95;1.50;;;27.10;99.90;;;;;;4995267;28;20069;-91
2023/04/24 12:09:04;;;;;;;2.00;1.50;;;26.30;99.90;;;;;;4995650;28;20057;-90
2023/04/24 12:11:30;;;;;;;2.78;1.58;;;25.30;99.90;;;;;;4995537;28;20082;-90
2023/04/24 12:13:55;;;;;;;3.17;1.50;;;24.50;99.90;;;;;;4995534;28;20030;-89
2023/04/24 12:16:21;;;;;;;5.40;1.70;;;24.10;99.90;;;;;;4977455;28;20026;-89
2023/04/24 12:18:46;;;;;;;3.40;1.70;;;24.50;99.90;;;;;;4978149;28;20030;-89
2023/04/24 12:21:21;;;;;;;2.67;1.77;;;25.30;99.90;;;;;;4994952;28;20628;-89
2023/04/24 12:23:47;;;;;;;2.42;1.60;;;25.90;99.90;;;;;;4995205;28;20018;-89
2023/04/24 12:26:17;;;;;;;3.75;1.75;;;25.60;99.90;;;;;;4995307;28;20034;-89
2023/04/24 12:28:45;;;;;;;1.95;1.60;;;25.40;99.90;;;;;;4977626;28;20364;-90
2023/04/24 12:31:11;;;;;;;2.53;1.60;;;26.60;99.90;;;;;;4977537;28;20037;-89
2023/04/24 12:33:38;;;;;;;3.75;1.65;;;27.70;99.90;;;;;;4995186;28;20450;-90
2023/04/24 12:36:05;;;;;;;2.42;1.50;;;27.60;99.90;;;;;;4994689;28;20439;-90
2023/04/24 12:38:31;;;;;;;3.08;1.40;;;27.40;99.90;;;;;;4993102;28;20047;-90
2023/04/24 12:41:06;;;;;;;2.85;1.60;;;28.00;99.90;;;;;;4975985;28;20027;-89
2023/04/24 12:43:32;;;;;;;2.50;1.60;;;27.90;99.90;;;;;;4974135;28;20531;-90
2023/04/24 12:45:58;;;;;;;2.20;1.60;;;27.40;99.90;;;;;;4979717;28;20023;-89
2023/04/24 12:48:28;;;;;;;2.13;1.38;;;27.60;99.90;;;;;;4994921;28;20408;-90
2023/04/24 12:50:53;;;;;;;2.55;1.65;;;28.30;99.90;;;;;;4992939;28;20113;-90